BIENTÔT MET'MAP
version 2.0 !

Prévue avant fin octobre,
la nouvelle version sera
plus belle, plus complète
et hébergée sur un serveur
3 fois plus puissant...
et toujours gratuite !


Pas compatible ?
Essayez la version Mobile !

SE CONNECTER : | S'inscrire | Disclaimer | Découvrir Orbifly |
Code OACI :

TAF - LDDU Dubrovnik - 13 Jul 2020 04:26 UTC - Data Source NOAA   


- Altitude de l'aérodrome : 527 ft
- Code IATA : DBV
- Pas de NOTAMs connus.


LDDU - Dubrovnik

Dernier METAR connu : 2015/08/11 08:00 LDDU 110800Z 15008KT 060V200 9999 FEW035 29/19 Q1013 NOSIG
TAF TAF LDDU
Valide du 13 à 00h jusqu'au 14 à 00h UTC


122325Z 1300/1400 02020G30KT CAVOK TX28/1312Z TN20/1302Z
TEMPO 1300/1307 02030G45KT
BECMG 1306/1308 02018KT
PROB40
TEMPO 1311/1317 30012KT
PROB40
TEMPO 1320/1400 02020G35KT

Source NOAA


MET'MAP, la Météo Aéronautique d'un coup d'oeil ! - Copyright ORBIFLY Décembre 2007

Développement & Programmation : Alexandra Zaïnal
Co-Développement : Marc-Olivier Méhu
Soutien technique & logistique : Manuel Goepfert
Conception & Financement : Baudouin d'Aumeries